Time;durP1;ratioP1;P1;durP2;ratioP2;P2;SDS_P1;SDS_P2;PMS_P1;PMS_P2;Temp;Humidity;BMP_temperature;BMP_pressure;BME280_temperature;BME280_humidity;BME280_pressure;Samples;Min_cycle;Max_cycle;Signal;HPM_P1;HPM_P2
2022/11/30 00:00:06;;;;;;;;;;;;;;;5.03;100.00;101677.94;5028172;28;20366;-59
2022/11/30 00:02:31;;;;;;;;;;;;;;;5.05;100.00;101681.28;5025337;28;20020;-56
2022/11/30 00:04:57;;;;;;;;;;;;;;;5.08;100.00;101682.81;5021467;28;19996;-60
2022/11/30 00:07:22;;;;;;;;;;;;;;;5.06;100.00;101685.59;5021848;28;19925;-57
2022/11/30 00:09:47;;;;;;;;;;;;;;;5.07;100.00;101678.53;5026048;28;19931;-59
2022/11/30 00:12:12;;;;;;;;;;;;;;;5.11;100.00;101686.06;5026612;28;19925;-57
2022/11/30 00:14:37;;;;;;;;;;;;;;;5.10;100.00;101670.41;5021360;28;19925;-58
2022/11/30 00:17:03;;;;;;;;;;;;;;;5.08;100.00;101678.41;5024693;28;20104;-58
2022/11/30 00:19:28;;;;;;;;;;;;;;;5.12;100.00;101673.75;5024207;28;19929;-60
2022/11/30 00:21:53;;;;;;;;;;;;;;;5.13;100.00;101686.75;5024852;28;19986;-60
2022/11/30 00:24:18;;;;;;;;;;;;;;;5.09;100.00;101679.25;5023363;28;19967;-58
2022/11/30 00:26:44;;;;;;;;;;;;;;;5.14;100.00;101669.19;5020332;28;19924;-59
2022/11/30 00:29:09;;;;;;;;;;;;;;;5.11;100.00;101677.31;5015292;28;19925;-58
2022/11/30 00:31:36;;;;;;;;;;;;;;;5.12;100.00;101673.75;5024101;28;21222;-59
2022/11/30 00:34:01;;;;;;;;;;;;;;;5.09;100.00;101666.94;5023620;28;19921;-59
2022/11/30 00:36:26;;;;;;;;;;;;;;;5.11;100.00;101682.56;5022914;28;19921;-56
2022/11/30 00:38:52;;;;;;;;;;;;;;;5.10;100.00;101683.53;5017183;28;19929;-59
2022/11/30 00:41:17;;;;;;;;;;;;;;;5.09;100.00;101674.00;5017650;28;20186;-60
2022/11/30 00:43:43;;;;;;;;;;;;;;;5.10;100.00;101678.28;5018347;28;19975;-59
2022/11/30 00:46:09;;;;;;;;;;;;;;;5.11;100.00;101677.31;5039255;28;19925;-61
2022/11/30 00:48:34;;;;;;;;;;;;;;;5.14;100.00;101671.81;5022820;28;19991;-59
2022/11/30 00:51:00;;;;;;;;;;;;;;;5.08;100.00;101677.56;5026248;28;19929;-60
2022/11/30 00:53:26;;;;;;;;;;;;;;;5.08;100.00;101667.88;5021228;28;19944;-60
2022/11/30 00:55:51;;;;;;;;;;;;;;;5.10;100.00;101670.41;5019710;28;20020;-60
2022/11/30 00:58:16;;;;;;;;;;;;;;;5.10;100.00;101665.97;5013717;28;20022;-56
2022/11/30 01:00:41;;;;;;;;;;;;;;;5.15;100.00;101665.59;5023920;28;19925;-58
2022/11/30 01:03:07;;;;;;;;;;;;;;;5.13;100.00;101670.13;5023774;28;19929;-60
2022/11/30 01:05:33;;;;;;;;;;;;;;;5.16;100.00;101669.88;5023705;28;19975;-60
2022/11/30 01:07:59;;;;;;;;;;;;;;;5.12;100.00;101668.47;5019502;28;19931;-59
2022/11/30 01:10:24;;;;;;;;;;;;;;;5.12;100.00;101663.22;5026866;28;19929;-61
2022/11/30 01:12:49;;;;;;;;;;;;;;;5.13;100.00;101670.13;5021219;28;20317;-59
2022/11/30 01:15:14;;;;;;;;;;;;;;;5.14;100.00;101666.56;5026037;28;19933;-59
2022/11/30 01:17:39;;;;;;;;;;;;;;;5.14;100.00;101666.56;5026069;28;19921;-58
2022/11/30 01:20:06;;;;;;;;;;;;;;;5.13;100.00;101672.78;5027750;28;19995;-59
2022/11/30 01:22:32;;;;;;;;;;;;;;;5.12;100.00;101668.47;5026494;28;19928;-58
2022/11/30 01:24:57;;;;;;;;;;;;;;;5.12;100.00;101666.69;5029755;28;19921;-61
2022/11/30 01:27:22;;;;;;;;;;;;;;;5.11;100.00;101666.78;5024201;28;19929;-57
2022/11/30 01:29:47;;;;;;;;;;;;;;;5.11;100.00;101667.66;5024389;28;20424;-57
2022/11/30 01:32:12;;;;;;;;;;;;;;;5.12;100.00;101671.13;5028938;28;19925;-60
2022/11/30 01:34:38;;;;;;;;;;;;;;;5.14;100.00;101670.03;5026269;28;19976;-59
2022/11/30 01:37:03;;;;;;;;;;;;;;;5.15;100.00;101669.06;5040190;28;19987;-57
2022/11/30 01:39:28;;;;;;;;;;;;;;;5.17;100.00;101664.50;5023325;28;20389;-58
2022/11/30 01:41:54;;;;;;;;;;;;;;;5.16;100.00;101665.47;5031257;28;19953;-61
2022/11/30 01:44:25;;;;;;;;;;;;;;;5.11;100.00;101662.41;5029012;28;20450;-60
2022/11/30 01:46:50;;;;;;;;;;;;;;;5.14;100.00;101667.41;5034196;28;19921;-59
2022/11/30 01:49:19;;;;;;;;;;;;;;;5.14;100.00;101661.31;5027795;28;20263;-60
2022/11/30 01:51:47;;;;;;;;;;;;;;;5.13;100.00;101668.34;5026219;28;19981;-55
2022/11/30 01:54:14;;;;;;;;;;;;;;;5.11;100.00;101667.66;5029773;28;19932;-60
2022/11/30 01:56:52;;;;;;;;;;;;;;;5.11;100.00;101669.41;5038643;28;19921;-59
2022/11/30 01:59:19;;;;;;;;;;;;;;;5.13;100.00;101668.34;5029732;28;19931;-58
2022/11/30 02:01:44;;;;;;;;;;;;;;;5.11;100.00;101686.06;5021790;28;19921;-59
2022/11/30 02:04:17;;;;;;;;;;;;;;;5.11;100.00;101683.44;5029033;28;20074;-57
2022/11/30 02:06:43;;;;;;;;;;;;;;;5.13;100.00;101681.47;5029250;28;19921;-60
2022/11/30 02:09:08;;;;;;;;;;;;;;;5.13;100.00;101683.28;5018881;28;19932;-59
2022/11/30 02:11:33;;;;;;;;;;;;;;;5.12;100.00;101679.81;5027187;28;19925;-58
2022/11/30 02:13:59;;;;;;;;;;;;;;;5.11;100.00;101683.44;5033177;28;20374;-59
2022/11/30 02:16:36;;;;;;;;;;;;;;;5.11;100.00;101677.31;5028828;28;20035;-58
2022/11/30 02:19:20;;;;;;;;;;;;;;;5.12;100.00;101679.00;5019178;28;20203;-57
2022/11/30 02:22:08;;;;;;;;;;;;;;;5.14;100.00;101684.97;5029691;28;20019;-59
2022/11/30 02:24:50;;;;;;;;;;;;;;;5.12;100.00;101695.59;5024735;28;19921;-61
2022/11/30 02:27:53;;;;;;;;;;;;;;;5.12;100.00;101692.97;5029386;28;20382;-59
2022/11/30 02:30:20;;;;;;;;;;;;;;;5.19;100.00;101695.94;5004615;28;19957;-60
2022/11/30 02:33:04;;;;;;;;;;;;;;;5.19;100.00;101693.31;5006272;28;19925;-59
2022/11/30 02:35:32;;;;;;;;;;;;;;;5.20;100.00;101697.59;5026235;28;20011;-60
2022/11/30 02:37:59;;;;;;;;;;;;;;;5.22;100.00;101690.44;5033330;28;20294;-60
2022/11/30 02:40:25;;;;;;;;;;;;;;;5.23;100.00;101692.09;5028719;28;19952;-58
2022/11/30 02:42:51;;;;;;;;;;;;;;;5.24;100.00;101694.59;5034287;28;20462;-59
2022/11/30 02:45:21;;;;;;;;;;;;;;;5.26;100.00;101689.19;5030083;28;19932;-57
2022/11/30 02:47:50;;;;;;;;;;;;;;;5.24;100.00;101699.84;5022470;28;19921;-59
2022/11/30 02:50:18;;;;;;;;;;;;;;;5.27;100.00;101696.16;5016310;28;19974;-58
2022/11/30 02:52:44;;;;;;;;;;;;;;;5.28;100.00;101697.81;5026391;28;19921;-60
2022/11/30 02:55:13;;;;;;;;;;;;;;;5.28;100.00;101695.16;5029976;28;19937;-60
2022/11/30 02:57:38;;;;;;;;;;;;;;;5.31;100.00;101699.34;5027324;28;20012;-60
2022/11/30 03:00:06;;;;;;;;;;;;;;;5.33;100.00;101698.25;5027464;28;20015;-54
2022/11/30 03:02:31;;;;;;;;;;;;;;;5.31;100.00;101692.28;5018601;28;20084;-60
2022/11/30 03:04:56;;;;;;;;;;;;;;;5.33;100.00;101697.44;5018188;28;20023;-60
2022/11/30 03:07:21;;;;;;;;;;;;;;;5.33;100.00;101700.06;5015188;28;19972;-59
2022/11/30 03:09:47;;;;;;;;;;;;;;;5.35;100.00;101700.78;5020915;28;20358;-61
2022/11/30 03:12:12;;;;;;;;;;;;;;;5.34;100.00;101701.72;5030367;28;20394;-56
2022/11/30 03:14:37;;;;;;;;;;;;;;;5.34;100.00;101704.34;5036365;28;20444;-57
2022/11/30 03:17:02;;;;;;;;;;;;;;;5.34;100.00;101705.16;5028048;28;20032;-60
2022/11/30 03:19:28;;;;;;;;;;;;;;;5.36;100.00;101702.44;5023981;28;20031;-59
2022/11/30 03:21:53;;;;;;;;;;;;;;;5.35;100.00;101701.59;5026958;28;19968;-60
2022/11/30 03:24:18;;;;;;;;;;;;;;;5.36;100.00;101705.88;5029407;28;19967;-58
2022/11/30 03:26:43;;;;;;;;;;;;;;;5.37;100.00;101709.34;5029659;28;20015;-59
2022/11/30 03:29:08;;;;;;;;;;;;;;;5.36;100.00;101705.88;5025311;28;19925;-55
2022/11/30 03:31:34;;;;;;;;;;;;;;;5.38;100.00;101706.59;5027692;28;19936;-60
2022/11/30 03:33:59;;;;;;;;;;;;;;;5.38;100.00;101705.78;5035467;28;19940;-58
2022/11/30 03:36:24;;;;;;;;;;;;;;;5.37;100.00;101707.56;5034343;28;20289;-59
2022/11/30 03:38:49;;;;;;;;;;;;;;;5.37;100.00;101711.97;5022821;28;20259;-58
2022/11/30 03:41:16;;;;;;;;;;;;;;;5.36;100.00;101713.78;5024978;28;19932;-61
2022/11/30 03:43:41;;;;;;;;;;;;;;;5.36;100.00;101721.66;5023958;28;19928;-59
2022/11/30 03:46:07;;;;;;;;;;;;;;;5.36;100.00;101719.03;5023379;28;20715;-60
2022/11/30 03:48:34;;;;;;;;;;;;;;;5.37;100.00;101728.63;5026852;28;20341;-58
2022/11/30 03:51:00;;;;;;;;;;;;;;;5.38;100.00;101729.44;5028433;28;19921;-56
2022/11/30 03:53:25;;;;;;;;;;;;;;;5.39;100.00;101725.84;5025408;28;19928;-60
2022/11/30 03:55:54;;;;;;;;;;;;;;;5.41;100.00;101727.38;5030757;28;20212;-58
2022/11/30 03:58:20;;;;;;;;;;;;;;;5.42;100.00;101729.06;5023206;28;19920;-60
2022/11/30 04:00:45;;;;;;;;;;;;;;;5.37;100.00;101731.25;5030557;28;20123;-60
2022/11/30 04:03:10;;;;;;;;;;;;;;;5.35;100.00;101725.28;5029191;28;19921;-57
2022/11/30 04:05:35;;;;;;;;;;;;;;;5.36;100.00;101726.94;5027210;28;20008;-56
2022/11/30 04:08:01;;;;;;;;;;;;;;;5.38;100.00;101724.19;5022568;28;20374;-58
2022/11/30 04:10:26;;;;;;;;;;;;;;;5.39;100.00;101728.47;5020099;28;19936;-60
2022/11/30 04:12:51;;;;;;;;;;;;;;;5.40;100.00;101736.25;5032075;28;19935;-57
2022/11/30 04:15:16;;;;;;;;;;;;;;;5.45;100.00;101735.88;5029781;28;19937;-56
2022/11/30 04:17:41;;;;;;;;;;;;;;;5.45;100.00;101728.81;5023478;28;19951;-59
2022/11/30 04:20:07;;;;;;;;;;;;;;;5.40;100.00;101731.00;5024315;28;20421;-60
2022/11/30 04:22:32;;;;;;;;;;;;;;;5.39;100.00;101734.56;5024763;28;19925;-60
2022/11/30 04:24:58;;;;;;;;;;;;;;;5.42;100.00;101734.34;5028604;28;20019;-59
2022/11/30 04:27:23;;;;;;;;;;;;;;;5.42;100.00;101736.97;5023531;28;19925;-58
2022/11/30 04:29:48;;;;;;;;;;;;;;;5.42;100.00;101739.59;5026511;28;20375;-60
2022/11/30 04:32:14;;;;;;;;;;;;;;;5.45;100.00;101739.34;5030712;28;20378;-60
2022/11/30 04:34:39;;;;;;;;;;;;;;;5.44;100.00;101745.53;5030256;28;19952;-59
2022/11/30 04:37:04;;;;;;;;;;;;;;;5.46;100.00;101745.44;5029381;28;19964;-57
2022/11/30 04:39:31;;;;;;;;;;;;;;;5.43;100.00;101743.06;5027254;28;20008;-56
2022/11/30 04:41:56;;;;;;;;;;;;;;;5.43;100.00;101751.78;5029630;28;19947;-60
2022/11/30 04:44:22;;;;;;;;;;;;;;;5.44;100.00;101748.16;5021779;28;19932;-57
2022/11/30 04:46:47;;;;;;;;;;;;;;;5.44;100.00;101745.53;5021885;28;20063;-60
2022/11/30 04:49:12;;;;;;;;;;;;;;;5.43;100.00;101745.69;5029266;28;19929;-57
2022/11/30 04:51:37;;;;;;;;;;;;;;;5.41;100.00;101745.78;5027536;28;19932;-57
2022/11/30 04:54:03;;;;;;;;;;;;;;;5.37;100.00;101741.75;5018969;28;20433;-60
2022/11/30 04:56:28;;;;;;;;;;;;;;;5.35;100.00;101746.31;5022753;28;19932;-56
2022/11/30 04:58:53;;;;;;;;;;;;;;;5.34;100.00;101746.44;5016381;28;19917;-59
2022/11/30 05:01:18;;;;;;;;;;;;;;;5.30;100.00;101748.47;5024700;28;19936;-59
2022/11/30 05:03:44;;;;;;;;;;;;;;;5.31;100.00;101744.88;5023405;28;19928;-53
2022/11/30 05:06:09;;;;;;;;;;;;;;;5.33;100.00;101739.50;5027660;28;19964;-59
2022/11/30 05:08:34;;;;;;;;;;;;;;;5.42;100.00;101744.00;5033476;28;20060;-60
2022/11/30 05:10:59;;;;;;;;;;;;;;;5.34;100.00;101743.78;5028646;28;20344;-60
2022/11/30 05:13:25;;;;;;;;;;;;;;;5.35;100.00;101743.69;5026395;28;19929;-60
2022/11/30 05:15:52;;;;;;;;;;;;;;;5.30;100.00;101750.28;5030984;28;19924;-53
2022/11/30 05:18:17;;;;;;;;;;;;;;;5.29;100.00;101754.69;5032396;28;20341;-60
2022/11/30 05:20:47;;;;;;;;;;;;;;;5.30;100.00;101756.38;5031620;28;19933;-59
2022/11/30 05:23:12;;;;;;;;;;;;;;;5.35;100.00;101758.63;5023499;28;19936;-59
2022/11/30 05:25:37;;;;;;;;;;;;;;;5.35;100.00;101759.47;5029625;28;19917;-56
2022/11/30 05:28:02;;;;;;;;;;;;;;;5.36;100.00;101773.44;5038797;28;19963;-60
2022/11/30 05:30:28;;;;;;;;;;;;;;;5.36;100.00;101771.63;5025517;28;19929;-59
2022/11/30 05:32:53;;;;;;;;;;;;;;;5.37;100.00;101772.47;5031468;28;19921;-60
2022/11/30 05:35:18;;;;;;;;;;;;;;;5.33;100.00;101773.69;5034310;28;19929;-58
2022/11/30 05:37:43;;;;;;;;;;;;;;;5.34;100.00;101778.00;5032063;28;19967;-58
2022/11/30 05:40:09;;;;;;;;;;;;;;;5.37;100.00;101783.00;5038019;28;19975;-60
2022/11/30 05:42:34;;;;;;;;;;;;;;;5.37;100.00;101780.34;5023526;28;20438;-57
2022/11/30 05:44:59;;;;;;;;;;;;;;;5.38;100.00;101782.88;5033721;28;19925;-57
2022/11/30 05:47:24;;;;;;;;;;;;;;;5.36;100.00;101782.16;5034245;28;19925;-58
2022/11/30 05:49:49;;;;;;;;;;;;;;;5.37;100.00;101781.22;5035916;28;19921;-59
2022/11/30 05:52:15;;;;;;;;;;;;;;;5.35;100.00;101780.50;5030407;28;19925;-55
2022/11/30 05:54:40;;;;;;;;;;;;;;;5.36;100.00;101782.16;5027962;28;19928;-55
2022/11/30 05:57:05;;;;;;;;;;;;;;;5.36;100.00;101789.22;5033236;28;19932;-59
2022/11/30 05:59:30;;;;;;;;;;;;;;;5.37;100.00;101801.41;5032464;28;19951;-60
2022/11/30 06:01:55;;;;;;;;;;;;;;;5.39;100.00;101797.69;5029513;28;20310;-60
2022/11/30 06:04:21;;;;;;;;;;;;;;;5.40;100.00;101801.19;5036358;28;19920;-56
2022/11/30 06:06:48;;;;;;;;;;;;;;;5.42;100.00;101807.13;5030663;28;19921;-60
2022/11/30 06:09:13;;;;;;;;;;;;;;;5.43;100.00;101812.28;5025463;28;19965;-60
2022/11/30 06:11:38;;;;;;;;;;;;;;;5.42;100.00;101807.97;5027421;28;19994;-58
2022/11/30 06:14:03;;;;;;;;;;;;;;;5.42;100.00;101807.13;5020753;28;19925;-57
2022/11/30 06:16:28;;;;;;;;;;;;;;;5.43;100.00;101808.81;5028773;28;19922;-57
2022/11/30 06:18:54;;;;;;;;;;;;;;;5.43;100.00;101817.53;5036791;28;19927;-59
2022/11/30 06:21:19;;;;;;;;;;;;;;;5.45;100.00;101813.00;5025635;28;20353;-59
2022/11/30 06:23:44;;;;;;;;;;;;;;;5.46;100.00;101814.66;5024137;28;20318;-59
2022/11/30 06:26:10;;;;;;;;;;;;;;;5.49;100.00;101818.00;5025737;28;20350;-59
2022/11/30 06:28:36;;;;;;;;;;;;;;;5.52;100.00;101823.84;5022839;28;20011;-60
2022/11/30 06:31:02;;;;;;;;;;;;;;;5.47;100.00;101824.22;5026012;28;20374;-59
2022/11/30 06:33:27;;;;;;;;;;;;;;;5.47;100.00;101824.22;5024883;28;19921;-59
2022/11/30 06:35:52;;;;;;;;;;;;;;;5.49;100.00;101823.25;5024566;28;20462;-60
2022/11/30 06:38:18;;;;;;;;;;;;;;;5.50;100.00;101824.91;5026070;28;19921;-59
2022/11/30 06:40:43;;;;;;;;;;;;;;;5.50;100.00;101825.78;5026271;28;19936;-57
2022/11/30 06:43:09;;;;;;;;;;;;;;;5.49;100.00;101829.34;5025534;28;20420;-59
2022/11/30 06:45:34;;;;;;;;;;;;;;;5.50;100.00;101832.81;5023770;28;19927;-60
2022/11/30 06:47:59;;;;;;;;;;;;;;;5.53;100.00;101840.47;5030473;28;19921;-60
2022/11/30 06:50:24;;;;;;;;;;;;;;;5.52;100.00;101838.78;5028228;28;19929;-59
2022/11/30 06:52:50;;;;;;;;;;;;;;;5.54;100.00;101842.13;5035670;28;19925;-57
2022/11/30 06:55:15;;;;;;;;;;;;;;;5.55;100.00;101834.13;5025988;28;19931;-58
2022/11/30 06:57:40;;;;;;;;;;;;;;;5.55;100.00;101842.03;5029620;28;20333;-59
2022/11/30 07:00:06;;;;;;;;;;;;;;;5.55;100.00;101838.53;5022930;28;20374;-60
2022/11/30 07:02:32;;;;;;;;;;;;;;;5.53;100.00;101843.94;5018568;28;20333;-60
2022/11/30 07:04:57;;;;;;;;;;;;;;;5.53;100.00;101849.19;5027498;28;19921;-59
2022/11/30 07:07:22;;;;;;;;;;;;;;;5.56;100.00;101841.06;5025070;28;19925;-60
2022/11/30 07:09:48;;;;;;;;;;;;;;;5.59;100.00;101850.50;5026488;28;19925;-59
2022/11/30 07:12:13;;;;;;;;;;;;;;;5.57;100.00;101850.59;5023641;28;19928;-60
2022/11/30 07:14:38;;;;;;;;;;;;;;;5.56;100.00;101856.00;5018023;28;20207;-58
2022/11/30 07:17:04;;;;;;;;;;;;;;;5.54;100.00;101857.91;5024278;28;19936;-60
2022/11/30 07:19:30;;;;;;;;;;;;;;;5.53;100.00;101859.72;5026701;28;19928;-58
2022/11/30 07:21:55;;;;;;;;;;;;;;;5.56;100.00;101861.28;5021830;28;19932;-60
2022/11/30 07:27:04;;;;;;;;;;;;;;;5.59;100.00;101861.00;5025889;28;20028;-57
2022/11/30 07:29:29;;;;;;;;;;;;;;;5.58;100.00;101867.25;5019712;28;20024;-58
2022/11/30 07:31:54;;;;;;;;;;;;;;;5.58;100.00;101875.16;5018405;28;19925;-57
2022/11/30 07:34:20;;;;;;;;;;;;;;;5.61;100.00;101882.78;5023937;28;19921;-59
2022/11/30 07:36:45;;;;;;;;;;;;;;;5.63;100.00;101878.25;5036792;28;20282;-58
2022/11/30 07:39:11;;;;;;;;;;;;;;;5.64;100.00;101885.16;5036882;28;20409;-56
2022/11/30 07:41:37;;;;;;;;;;;;;;;5.63;100.00;101886.97;5029436;28;19917;-58
2022/11/30 07:44:06;;;;;;;;;;;;;;;5.63;100.00;101884.31;5025639;28;19929;-60
2022/11/30 07:46:34;;;;;;;;;;;;;;;5.66;100.00;101888.50;5018719;28;20008;-60
2022/11/30 07:49:03;;;;;;;;;;;;;;;5.67;100.00;101905.97;5023309;28;19921;-59
2022/11/30 07:51:28;;;;;;;;;;;;;;;5.73;100.00;101905.47;5020526;28;19971;-58
2022/11/30 07:53:54;;;;;;;;;;;;;;;5.68;100.00;101902.38;5024673;28;19969;-60
2022/11/30 07:56:19;;;;;;;;;;;;;;;5.68;100.00;101905.84;5027950;28;19924;-58
2022/11/30 07:58:45;;;;;;;;;;;;;;;5.70;100.00;101903.06;5021872;28;19921;-55
2022/11/30 08:01:12;;;;;;;;;;;;;;;5.72;100.00;101905.59;5020811;28;19918;-60
2022/11/30 08:03:37;;;;;;;;;;;;;;;5.72;100.00;101909.06;5018671;28;19932;-58
2022/11/30 08:06:05;;;;;;;;;;;;;;;5.77;100.00;101911.31;5022800;28;19922;-59
2022/11/30 08:08:31;;;;;;;;;;;;;;;5.79;100.00;101909.41;5025565;28;19921;-58
2022/11/30 08:10:57;;;;;;;;;;;;;;;5.81;100.00;101912.75;5013860;28;19974;-58
2022/11/30 08:13:23;;;;;;;;;;;;;;;5.79;100.00;101915.50;5020726;28;19932;-60
2022/11/30 08:15:49;;;;;;;;;;;;;;;5.82;100.00;101915.25;5023405;28;20066;-56
2022/11/30 08:18:14;;;;;;;;;;;;;;;5.84;100.00;101923.84;5026470;28;20312;-56
2022/11/30 08:20:39;;;;;;;;;;;;;;;5.87;100.00;101917.50;5020151;28;19925;-58
2022/11/30 08:23:04;;;;;;;;;;;;;;;5.84;100.00;101915.97;5021664;28;19929;-58
2022/11/30 08:25:30;;;;;;;;;;;;;;;5.88;100.00;101919.16;5016679;28;19929;-58
2022/11/30 08:27:55;;;;;;;;;;;;;;;5.87;100.00;101915.72;5025371;28;19932;-58
2022/11/30 08:30:21;;;;;;;;;;;;;;;5.87;100.00;101923.59;5026334;28;19972;-60
2022/11/30 08:32:46;;;;;;;;;;;;;;;5.88;100.00;101929.69;5022414;28;19967;-58
2022/11/30 08:35:11;;;;;;;;;;;;;;;5.89;100.00;101934.84;5025282;28;20390;-60
2022/11/30 08:37:37;;;;;;;;;;;;;;;5.95;100.00;101936.19;5023452;28;20433;-59
2022/11/30 08:40:02;;;;;;;;;;;;;;;5.93;100.00;101931.97;5026072;28;19925;-57
2022/11/30 08:42:27;;;;;;;;;;;;;;;5.92;100.00;101930.31;5020589;28;19932;-58
2022/11/30 08:44:53;;;;;;;;;;;;;;;5.91;100.00;101929.44;5026821;28;20189;-58
2022/11/30 08:47:18;;;;;;;;;;;;;;;5.90;100.00;101936.50;5024591;28;19947;-60
2022/11/30 08:49:43;;;;;;;;;;;;;;;5.87;100.00;101936.75;5026210;28;19921;-60
2022/11/30 08:52:08;;;;;;;;;;;;;;;5.89;100.00;101944.56;5027056;28;19928;-59
2022/11/30 08:54:33;;;;;;;;;;;;;;;5.87;100.00;101935.94;5024525;28;20032;-59
2022/11/30 08:56:59;;;;;;;;;;;;;;;5.89;100.00;101945.38;5025945;28;19999;-58
2022/11/30 08:59:24;;;;;;;;;;;;;;;5.94;100.00;101952.09;5025986;28;20063;-60
2022/11/30 09:01:49;;;;;;;;;;;;;;;5.95;100.00;101953.78;5021013;28;19928;-56
2022/11/30 09:04:14;;;;;;;;;;;;;;;5.94;100.00;101955.56;5021505;28;20309;-61
2022/11/30 09:06:40;;;;;;;;;;;;;;;5.97;100.00;101949.22;5022372;28;20370;-57
2022/11/30 09:09:05;;;;;;;;;;;;;;;6.01;100.00;101953.25;5016813;28;19933;-57
2022/11/30 09:11:31;;;;;;;;;;;;;;;6.03;100.00;101951.34;5021064;28;20389;-60
2022/11/30 09:13:58;;;;;;;;;;;;;;;5.98;100.00;101946.44;5019686;28;19925;-60
2022/11/30 09:16:24;;;;;;;;;;;;;;;6.01;100.00;101955.91;5022650;28;19922;-58
2022/11/30 09:18:50;;;;;;;;;;;;;;;5.96;100.00;101952.81;5028102;28;19929;-60
2022/11/30 09:21:17;;;;;;;;;;;;;;;5.99;100.00;101953.41;5027289;28;19963;-60
2022/11/30 09:23:42;;;;;;;;;;;;;;;6.07;100.00;101955.41;5029737;28;19967;-60
2022/11/30 09:26:08;;;;;;;;;;;;;;;6.07;100.00;101956.25;5027339;28;20675;-57
2022/11/30 09:28:34;;;;;;;;;;;;;;;6.06;100.00;101949.28;5025625;28;20012;-60
2022/11/30 09:31:03;;;;;;;;;;;;;;;6.09;100.00;101945.56;5027843;28;20016;-58
2022/11/30 09:33:29;;;;;;;;;;;;;;;6.13;100.00;101954.06;5027427;28;19925;-58
2022/11/30 09:35:58;;;;;;;;;;;;;;;6.16;100.00;101961.72;5029529;28;19921;-61
2022/11/30 09:38:23;;;;;;;;;;;;;;;6.16;100.00;101953.81;5027956;28;19925;-56
2022/11/30 09:40:56;;;;;;;;;;;;;;;6.18;100.00;101958.00;5017799;28;19921;-60
2022/11/30 09:43:21;;;;;;;;;;;;;;;6.17;100.00;101951.06;5027019;28;19925;-60
2022/11/30 09:45:52;;;;;;;;;;;;;;;6.13;100.00;101960.16;5024035;28;19929;-60
2022/11/30 09:48:25;;;;;;;;;;;;;;;6.12;100.00;101953.25;5028325;28;20321;-61
2022/11/30 09:50:52;;;;;;;;;;;;;;;6.13;100.00;101954.06;5023014;28;19929;-60
2022/11/30 09:53:34;;;;;;;;;;;;;;;6.16;100.00;101954.63;5028334;28;19921;-58
2022/11/30 09:55:59;;;;;;;;;;;;;;;6.27;100.00;101956.38;5028127;28;19929;-59
2022/11/30 09:58:29;;;;;;;;;;;;;;;6.31;100.00;101953.38;5032512;28;20016;-55
2022/11/30 10:00:54;;;;;;;;;;;;;;;6.32;100.00;101954.22;5033309;28;20369;-56
2022/11/30 10:03:21;;;;;;;;;;;;;;;6.37;100.00;101954.66;5027761;28;19953;-60
2022/11/30 10:05:52;;;;;;;;;;;;;;;6.38;100.00;101952.88;5030703;28;19922;-60
2022/11/30 10:08:30;;;;;;;;;;;;;;;6.39;100.00;101957.19;5027668;28;20272;-58
2022/11/30 10:11:14;;;;;;;;;;;;;;;6.44;100.00;101955.84;5016798;28;19921;-59
2022/11/30 10:13:54;;;;;;;;;;;;;;;6.43;100.00;101945.41;5023699;28;20409;-59
2022/11/30 10:16:25;;;;;;;;;;;;;;;6.47;100.00;101952.94;5028857;28;19928;-59
2022/11/30 10:18:53;;;;;;;;;;;;;;;6.53;100.00;101949.81;5027854;28;19928;-55
2022/11/30 10:21:34;;;;;;;;;;;;;;;6.59;100.00;101951.09;5026818;28;19929;-59
2022/11/30 10:24:00;;;;;;;;;;;;;;;6.63;100.00;101936.66;5029514;28;20007;-58
2022/11/30 10:26:33;;;;;;;;;;;;;;;6.73;100.00;101936.72;5032327;28;20075;-58
2022/11/30 10:29:04;;;;;;;;;;;;;;;6.80;100.00;101926.50;5028821;28;19922;-60
2022/11/30 10:31:34;;;;;;;;;;;;;;;6.81;100.00;101928.16;5027785;28;19929;-58
2022/11/30 10:34:11;;;;;;;;;;;;;;;6.84;100.00;101927.91;5031388;28;19921;-60
2022/11/30 10:36:40;;;;;;;;;;;;;;;6.81;100.00;101922.91;5032047;28;20012;-60
2022/11/30 10:39:11;;;;;;;;;;;;;;;6.85;100.00;101926.94;5029706;28;19929;-56
2022/11/30 10:41:45;;;;;;;;;;;;;;;6.86;100.00;101921.53;5036585;28;19928;-60
2022/11/30 10:44:14;;;;;;;;;;;;;;;6.83;100.00;101913.88;5026602;28;20390;-59
2022/11/30 10:46:42;;;;;;;;;;;;;;;6.83;100.00;101905.16;5031204;28;19925;-58
2022/11/30 10:49:13;;;;;;;;;;;;;;;6.83;100.00;101905.97;5025155;28;19921;-61
2022/11/30 10:51:40;;;;;;;;;;;;;;;6.81;100.00;101907.91;5027262;28;19949;-60
2022/11/30 10:54:16;;;;;;;;;;;;;;;6.83;100.00;101898.06;5022601;28;20386;-60
2022/11/30 10:56:42;;;;;;;;;;;;;;;6.85;100.00;101903.22;5021237;28;19922;-59
2022/11/30 10:59:15;;;;;;;;;;;;;;;6.86;100.00;101895.16;5028199;28;19933;-60
2022/11/30 11:01:41;;;;;;;;;;;;;;;6.89;100.00;101896.69;5031891;28;20133;-57
2022/11/30 11:04:08;;;;;;;;;;;;;;;7.02;100.00;101897.31;5030016;28;19948;-57
2022/11/30 11:06:33;;;;;;;;;;;;;;;7.26;100.00;101898.81;5030388;28;19936;-59
2022/11/30 11:09:18;;;;;;;;;;;;;;;7.55;100.00;101902.31;5027938;28;19924;-61
2022/11/30 11:11:44;;;;;;;;;;;;;;;7.94;100.00;101896.25;5028757;28;20294;-58
2022/11/30 11:14:20;;;;;;;;;;;;;;;8.00;100.00;101893.91;5030791;28;19925;-60
2022/11/30 11:16:50;;;;;;;;;;;;;;;8.04;100.00;101894.44;5021779;28;19968;-61
2022/11/30 11:19:30;;;;;;;;;;;;;;;8.21;100.00;101887.59;5027302;28;19928;-60
2022/11/30 11:21:55;;;;;;;;;;;;;;;8.33;100.00;101883.00;5026940;28;20019;-60
2022/11/30 11:24:24;;;;;;;;;;;;;;;8.17;100.00;101880.94;5026942;28;20029;-60
2022/11/30 11:26:50;;;;;;;;;;;;;;;7.85;100.00;101874.16;5027165;28;19922;-58
2022/11/30 11:29:32;;;;;;;;;;;;;;;7.66;100.00;101877.59;5029322;28;20408;-59
2022/11/30 11:32:18;;;;;;;;;;;;;;;7.53;100.00;101882.31;5030290;28;19932;-58
2022/11/30 11:34:43;;;;;;;;;;;;;;;7.56;100.00;101882.91;5024119;28;20004;-60
2022/11/30 11:37:11;;;;;;;;;;;;;;;7.79;100.00;101872.88;5030690;28;20398;-58
2022/11/30 11:39:36;;;;;;;;;;;;;;;8.05;100.00;101872.31;5033930;28;19996;-59
2022/11/30 11:42:02;;;;;;;;;;;;;;;8.22;100.00;101868.16;5022224;28;20016;-60
2022/11/30 11:44:27;;;;;;;;;;;;;;;8.21;100.00;101867.31;5029103;28;19932;-60
2022/11/30 11:46:55;;;;;;;;;;;;;;;8.17;100.00;101865.09;5024970;28;19921;-59
2022/11/30 11:49:25;;;;;;;;;;;;;;;8.22;100.00;101853.13;5026683;28;19921;-59
2022/11/30 11:52:02;;;;;;;;;;;;;;;8.36;100.00;101858.94;5030189;28;19925;-58
2022/11/30 11:54:31;;;;;;;;;;;;;;;8.45;100.00;101847.53;5029095;28;19925;-60
2022/11/30 11:56:57;;;;;;;;;;;;;;;8.68;100.00;101853.31;5029663;28;20405;-57
2022/11/30 11:59:45;;;;;;;;;;;;;;;8.88;100.00;101846.09;5030313;28;20023;-60
2022/11/30 12:02:37;;;;;;;;;;;;;;;9.10;100.00;101843.06;5019739;28;19958;-57
2022/11/30 12:05:16;;;;;;;;;;;;;;;9.35;100.00;101830.94;5021481;28;19975;-56
2022/11/30 12:07:47;;;;;;;;;;;;;;;9.24;100.00;101831.16;5029635;28;19921;-60
2022/11/30 12:10:28;;;;;;;;;;;;;;;9.11;100.00;101823.59;5026949;28;19921;-60
2022/11/30 12:12:53;;;;;;;;;;;;;;;9.04;100.00;101811.94;5028123;28;20349;-61
2022/11/30 12:15:24;;;;;;;;;;;;;;;8.88;100.00;101802.00;5024570;28;19928;-61
2022/11/30 12:17:52;;;;;;;;;;;;;;;8.78;100.00;101800.34;5023537;28;19929;-61
2022/11/30 12:20:36;;;;;;;;;;;;;;;8.81;100.00;101808.84;5027508;28;19929;-56
2022/11/30 12:23:04;;;;;;;;;;;;;;;8.98;100.00;101816.97;5021879;28;19952;-61
2022/11/30 12:25:33;;;;;;;;;;;;;;;9.04;100.00;101821.69;5027717;28;19925;-58
2022/11/30 12:28:12;;;;;;;;;;;;;;;9.05;100.00;101815.41;5027725;28;20424;-61
2022/11/30 12:30:57;;;;;;;;;;;;;;;9.01;100.00;101822.81;5028137;28;19925;-59
2022/11/30 12:33:41;;;;;;;;;;;;;;;8.98;100.00;101833.66;5024609;28;19932;-58
2022/11/30 12:36:27;;;;;;;;;;;;;;;9.14;100.00;101836.50;5028492;28;20240;-61
2022/11/30 12:39:04;;;;;;;;;;;;;;;9.26;100.00;101838.94;5029226;28;19928;-59